Terminal Aerodrome Forecast
Issued by NWS

Home | Current Version | Previous Version | Text Only | Print | Product List | Glossary On
Versions: 1 2 3 4 5 6 7 8 9 10 11 12 13 14 15 16 17 18 19 20 21 22 23 24 25
000
FTUS45 KLKN 141100
TAFEKO
TAF
KEKO 141124Z 1412/1512 VRB04KT P6SM BKN120
     FM142000 23009KT P6SM VCTS SCT100CB
     FM150000 28010KT P6SM VCTS SCT100CB
     FM150300 VRB05KT P6SM SCT150=

USA.gov is the U.S. government's official web portal to all federal, state and local government web resources and services.